Observation data for Northfield on 07/20/2019      Previous  Date       Current Mesonet Observations  Soil Data  Daily Summary Page  Observations in Plain Language
KNOR 200500Z 16012KT 30/14 A2986 RMK A01 T02970136  RH  039%=      5-min Rain = 0
KNOR 200505Z 16013KT 29/14 A2986 RMK A01 T02940136  RH  039%=      5-min Rain = 0
KNOR 200510Z 16013KT 29/14 A2986 RMK A01 T02930135  RH  040%=      5-min Rain = 0
KNOR 200515Z 17013KT 29/13 A2986 RMK A01 T02940134  RH  039%=      5-min Rain = 0
KNOR 200520Z 17013KT 29/13 A2986 RMK A01 T02940133  RH  039%=      5-min Rain = 0
KNOR 200525Z 16013KT 29/13 A2986 RMK A01 T02920132  RH  039%=      5-min Rain = 0
KNOR 200530Z 16013G18KT 29/13 A2986 RMK A01 T02910131  RH  039%=      5-min Rain = 0
KNOR 200535Z 16013KT 29/13 A2986 RMK A01 T02900130  RH  039%=      5-min Rain = 0
KNOR 200540Z 16014KT 29/13 A2986 RMK A01 T02890129  RH  039%=      5-min Rain = 0
KNOR 200545Z 16013KT 29/13 A2986 RMK A01 T02880128  RH  039%=      5-min Rain = 0
KNOR 200550Z 17013KT 29/13 A2986 RMK A01 T02860128  RH  039%=      5-min Rain = 0
KNOR 200555Z 17012KT 29/13 A2986 RMK A01 T02850127  RH  039%=      5-min Rain = 0
KNOR 200600Z 17013KT 28/13 A2986 RMK A01 T02840126  RH  039%=      5-min Rain = 0
KNOR 200605Z 17013KT 28/13 A2986 RMK A01 T02830126  RH  039%=      5-min Rain = 0
KNOR 200610Z 17013KT 28/13 A2986 RMK A01 T02820126  RH  039%=      5-min Rain = 0
KNOR 200615Z 17014KT 28/13 A2986 RMK A01 T02830126  RH  039%=      5-min Rain = 0
KNOR 200620Z 17015KT 28/13 A2986 RMK A01 T02820125  RH  039%=      5-min Rain = 0
KNOR 200625Z 17014G19KT 28/13 A2986 RMK A01 T02820126  RH  040%=      5-min Rain = 0
KNOR 200630Z 17013G18KT 28/13 A2986 RMK A01 T02800126  RH  040%=      5-min Rain = 0
KNOR 200635Z 17012G17KT 28/13 A2986 RMK A01 T02780127  RH  041%=      5-min Rain = 0
KNOR 200640Z 18013KT 28/13 A2986 RMK A01 T02780127  RH  041%=      5-min Rain = 0
KNOR 200645Z 18013KT 28/13 A2986 RMK A01 T02780127  RH  041%=      5-min Rain = 0
KNOR 200650Z 17012KT 28/13 A2986 RMK A01 T02770128  RH  041%=      5-min Rain = 0
KNOR 200655Z 17012KT 28/13 A2986 RMK A01 T02760128  RH  042%=      5-min Rain = 0
KNOR 200700Z 17012KT 28/13 A2986 RMK A01 T02750129  RH  042%=      5-min Rain = 0
KNOR 200705Z 18012KT 27/13 A2986 RMK A01 T02740129  RH  042%=      5-min Rain = 0
KNOR 200710Z 18012KT 27/13 A2986 RMK A01 T02730130  RH  043%=      5-min Rain = 0
KNOR 200715Z 18012KT 27/13 A2986 RMK A01 T02730130  RH  043%=      5-min Rain = 0
KNOR 200720Z 18012G17KT 27/13 A2986 RMK A01 T02720131  RH  043%=      5-min Rain = 0
KNOR 200725Z 18012KT 27/13 A2986 RMK A01 T02730132  RH  043%=      5-min Rain = 0
KNOR 200730Z 18013KT 27/13 A2986 RMK A01 T02730132  RH  043%=      5-min Rain = 0
KNOR 200735Z 18012KT 27/13 A2986 RMK A01 T02720133  RH  044%=      5-min Rain = 0
KNOR 200740Z 19012KT 27/13 A2985 RMK A01 T02720134  RH  044%=      5-min Rain = 0
KNOR 200745Z 18010KT 27/13 A2986 RMK A01 T02690134  RH  045%=      5-min Rain = 0
KNOR 200750Z 19010KT 27/14 A2986 RMK A01 T02680135  RH  046%=      5-min Rain = 0
KNOR 200755Z 19009KT 27/14 A2986 RMK A01 T02670135  RH  046%=      5-min Rain = 0
KNOR 200800Z 20009KT 27/14 A2986 RMK A01 T02650136  RH  047%=      5-min Rain = 0
KNOR 200805Z 19009KT 26/14 A2986 RMK A01 T02640136  RH  047%=      5-min Rain = 0
KNOR 200810Z 19010KT 27/14 A2986 RMK A01 T02650137  RH  047%=      5-min Rain = 0
KNOR 200815Z 19010KT 27/14 A2986 RMK A01 T02670136  RH  047%=      5-min Rain = 0
KNOR 200820Z 19010KT 27/14 A2986 RMK A01 T02660137  RH  047%=      5-min Rain = 0
KNOR 200825Z 19010KT 27/14 A2986 RMK A01 T02660137  RH  047%=      5-min Rain = 0
KNOR 200830Z 19010KT 27/14 A2986 RMK A01 T02660137  RH  047%=      5-min Rain = 0
KNOR 200835Z 19010KT 27/14 A2986 RMK A01 T02660137  RH  047%=      5-min Rain = 0
KNOR 200840Z 19009KT 27/14 A2986 RMK A01 T02670136  RH  046%=      5-min Rain = 0
KNOR 200845Z 19008KT 27/14 A2986 RMK A01 T02650136  RH  047%=      5-min Rain = 0
KNOR 200850Z 19007KT 26/14 A2986 RMK A01 T02640137  RH  047%=      5-min Rain = 0
KNOR 200855Z 19007KT 26/14 A2986 RMK A01 T02630137  RH  048%=      5-min Rain = 0
KNOR 200900Z 18007KT 26/14 A2986 RMK A01 T02610137  RH  048%=      5-min Rain = 0
KNOR 200905Z 19007KT 26/14 A2987 RMK A01 T02610137  RH  048%=      5-min Rain = 0
KNOR 200910Z 19007KT 26/14 A2987 RMK A01 T02580137  RH  049%=      5-min Rain = 0
KNOR 200915Z 18008KT 26/14 A2987 RMK A01 T02580137  RH  049%=      5-min Rain = 0
KNOR 200920Z 18008KT 26/14 A2987 RMK A01 T02570137  RH  050%=      5-min Rain = 0
KNOR 200925Z 18007KT 26/14 A2987 RMK A01 T02560137  RH  050%=      5-min Rain = 0
KNOR 200930Z 18008KT 26/14 A2987 RMK A01 T02560137  RH  050%=      5-min Rain = 0
KNOR 200935Z 18008KT 26/14 A2987 RMK A01 T02560137  RH  050%=      5-min Rain = 0
KNOR 200940Z 18009KT 26/14 A2987 RMK A01 T02560137  RH  050%=      5-min Rain = 0
KNOR 200945Z 19009KT 26/14 A2987 RMK A01 T02560138  RH  050%=      5-min Rain = 0
KNOR 200950Z 18009KT 26/14 A2987 RMK A01 T02570138  RH  050%=      5-min Rain = 0
KNOR 200955Z 18010KT 26/14 A2987 RMK A01 T02570138  RH  050%=      5-min Rain = 0
KNOR 201000Z 18009KT 26/14 A2987 RMK A01 T02570138  RH  050%=      5-min Rain = 0
KNOR 201005Z 18009KT 26/14 A2987 RMK A01 T02560139  RH  050%=      5-min Rain = 0
KNOR 201010Z 18009KT 26/14 A2987 RMK A01 T02570139  RH  050%=      5-min Rain = 0
KNOR 201015Z 19009KT 26/14 A2987 RMK A01 T02560140  RH  051%=      5-min Rain = 0
KNOR 201020Z 18009KT 26/14 A2987 RMK A01 T02560140  RH  051%=      5-min Rain = 0
KNOR 201025Z 18009KT 26/14 A2987 RMK A01 T02570140  RH  051%=      5-min Rain = 0
KNOR 201030Z 19009KT 26/14 A2987 RMK A01 T02560141  RH  051%=      5-min Rain = 0
KNOR 201035Z 19009KT 26/14 A2987 RMK A01 T02550141  RH  051%=      5-min Rain = 0
KNOR 201040Z 19009KT 26/14 A2987 RMK A01 T02550141  RH  051%=      5-min Rain = 0
KNOR 201045Z 19009KT 26/14 A2987 RMK A01 T02550142  RH  052%=      5-min Rain = 0
KNOR 201050Z 19009KT 26/14 A2988 RMK A01 T02550142  RH  052%=      5-min Rain = 0
KNOR 201055Z 19009KT 25/14 A2988 RMK A01 T02540143  RH  052%=      5-min Rain = 0
KNOR 201100Z 19009KT 26/14 A2988 RMK A01 T02550143  RH  052%=      5-min Rain = 0
KNOR 201105Z 19009KT 25/14 A2988 RMK A01 T02540144  RH  053%=      5-min Rain = 0
KNOR 201110Z 19008KT 25/15 A2988 RMK A01 T02530145  RH  054%=      5-min Rain = 0
KNOR 201115Z 20008KT 25/15 A2988 RMK A01 T02520146  RH  054%=      5-min Rain = 0
KNOR 201120Z 20008KT 25/15 A2988 RMK A01 T02510147  RH  055%=      5-min Rain = 0
KNOR 201125Z 20009KT 25/15 A2988 RMK A01 T02510148  RH  055%=      5-min Rain = 0
KNOR 201130Z 20009KT 25/15 A2988 RMK A01 T02510149  RH  056%=      5-min Rain = 0
KNOR 201135Z 20009KT 25/15 A2988 RMK A01 T02510150  RH  056%=      5-min Rain = 0
KNOR 201140Z 20008KT 25/15 A2988 RMK A01 T02500151  RH  057%=      5-min Rain = 0
KNOR 201145Z 20009KT 25/15 A2988 RMK A01 T02510152  RH  057%=      5-min Rain = 0
KNOR 201150Z 21008KT 25/15 A2988 RMK A01 T02500154  RH  058%=      5-min Rain = 0
KNOR 201155Z 21008KT 25/16 A2989 RMK A01 T02510155  RH  058%=      5-min Rain = 0
KNOR 201200Z 21008KT 25/16 A2989 RMK A01 T02510157  RH  058%=      5-min Rain = 0
KNOR 201205Z 21008KT 25/16 A2989 RMK A01 T02530158  RH  058%=      5-min Rain = 0
KNOR 201210Z 20007KT 25/16 A2989 RMK A01 T02540160  RH  059%=      5-min Rain = 0
KNOR 201215Z 20008KT 26/16 A2989 RMK A01 T02550161  RH  059%=      5-min Rain = 0
KNOR 201220Z 20009KT 26/16 A2989 RMK A01 T02580162  RH  058%=      5-min Rain = 0
KNOR 201225Z 20008KT 26/16 A2989 RMK A01 T02580163  RH  058%=      5-min Rain = 0
KNOR 201230Z 20008KT 26/17 A2989 RMK A01 T02590165  RH  059%=      5-min Rain = 0
KNOR 201235Z 19007KT 26/17 A2989 RMK A01 T02610166  RH  059%=      5-min Rain = 0
KNOR 201240Z 19008KT 26/17 A299 RMK A01 T02620167  RH  059%=      5-min Rain = 0
KNOR 201245Z 19008KT 26/17 A299 RMK A01 T02640168  RH  058%=      5-min Rain = 0
KNOR 201250Z 18008KT 27/17 A299 RMK A01 T02660169  RH  058%=      5-min Rain = 0
KNOR 201255Z 17008KT 27/17 A299 RMK A01 T02680170  RH  058%=      5-min Rain = 0
KNOR 201300Z 18008KT 27/17 A299 RMK A01 T02680169  RH  058%=      5-min Rain = 0
KNOR 201305Z 18008KT 27/17 A299 RMK A01 T02680170  RH  058%=      5-min Rain = 0
KNOR 201310Z 18008KT 27/17 A299 RMK A01 T02690171  RH  058%=      5-min Rain = 0
KNOR 201315Z 19009G15KT 27/17 A299 RMK A01 T02710172  RH  058%=      5-min Rain = 0
KNOR 201320Z 19010G16KT 27/17 A299 RMK A01 T02730174  RH  057%=      5-min Rain = 0
KNOR 201325Z 19012KT 28/18 A299 RMK A01 T02750175  RH  057%=      5-min Rain = 0
KNOR 201330Z 19011KT 28/18 A299 RMK A01 T02790176  RH  057%=      5-min Rain = 0
KNOR 201335Z 19013G19KT 28/18 A299 RMK A01 T02800177  RH  056%=      5-min Rain = 0
KNOR 201340Z 19013KT 28/18 A299 RMK A01 T02790177  RH  057%=      5-min Rain = 0
KNOR 201345Z 19013G18KT 28/18 A299 RMK A01 T02820178  RH  056%=      5-min Rain = 0
KNOR 201350Z 20014G20KT 28/18 A299 RMK A01 T02820177  RH  056%=      5-min Rain = 0
KNOR 201355Z 20015G20KT 28/18 A299 RMK A01 T02840178  RH  055%=      5-min Rain = 0
KNOR 201400Z 20014G19KT 29/18 A299 RMK A01 T02860178  RH  055%=      5-min Rain = 0
KNOR 201405Z 21015G21KT 29/18 A299 RMK A01 T02880178  RH  054%=      5-min Rain = 0
KNOR 201410Z 20015G21KT 29/18 A299 RMK A01 T02900179  RH  054%=      5-min Rain = 0
KNOR 201415Z 20017KT 29/18 A299 RMK A01 T02890178  RH  054%=      5-min Rain = 0
KNOR 201420Z 21013G19KT 29/18 A299 RMK A01 T02940179  RH  053%=      5-min Rain = 0
KNOR 201425Z 21017KT 29/18 A299 RMK A01 T02930178  RH  052%=      5-min Rain = 0
KNOR 201430Z 20014G22KT 30/18 A299 RMK A01 T02970179  RH  052%=      5-min Rain = 0
KNOR 201435Z 21015G20KT 30/18 A299 RMK A01 T02970178  RH  051%=      5-min Rain = 0
KNOR 201440Z 21014G20KT 30/18 A299 RMK A01 T03000178  RH  051%=      5-min Rain = 0
KNOR 201445Z 21015KT 30/18 A299 RMK A01 T03020178  RH  050%=      5-min Rain = 0
KNOR 201450Z 20016G22KT 30/18 A299 RMK A01 T03010177  RH  050%=      5-min Rain = 0
KNOR 201455Z 20017G22KT 30/18 A299 RMK A01 T03010176  RH  050%=      5-min Rain = 0
KNOR 201500Z 21016KT 30/18 A299 RMK A01 T03040177  RH  049%=      5-min Rain = 0
KNOR 201505Z 20013KT 31/18 A299 RMK A01 T03080178  RH  048%=      5-min Rain = 0
KNOR 201510Z 19015G21KT 31/18 A299 RMK A01 T03070177  RH  048%=      5-min Rain = 0
KNOR 201515Z 20015KT 31/18 A299 RMK A01 T03110178  RH  047%=      5-min Rain = 0
KNOR 201520Z 20014G19KT 31/18 A299 RMK A01 T03120178  RH  047%=      5-min Rain = 0
KNOR 201525Z 19015G21KT 31/18 A299 RMK A01 T03130177  RH  047%=      5-min Rain = 0
KNOR 201530Z 20014G21KT 32/18 A299 RMK A01 T03160177  RH  046%=      5-min Rain = 0
KNOR 201535Z 19016G22KT 32/18 A2989 RMK A01 T03150176  RH  046%=      5-min Rain = 0
KNOR 201540Z 21015G21KT 32/18 A2989 RMK A01 T03170176  RH  045%=      5-min Rain = 0
KNOR 201545Z 20013KT 32/18 A2989 RMK A01 T03210179  RH  045%=      5-min Rain = 0
KNOR 201550Z 19014G20KT 32/18 A2989 RMK A01 T03210179  RH  045%=      5-min Rain = 0
KNOR 201555Z 19015G20KT 32/18 A2989 RMK A01 T03180178  RH  046%=      5-min Rain = 0
KNOR 201600Z 19014G19KT 33/18 A2989 RMK A01 T03250179  RH  044%=      5-min Rain = 0
KNOR 201605Z 19013KT 32/18 A2989 RMK A01 T03240178  RH  044%=      5-min Rain = 0
KNOR 201610Z 20013G18KT 32/18 A2989 RMK A01 T03240178  RH  044%=      5-min Rain = 0
KNOR 201615Z 19014KT 33/18 A2989 RMK A01 T03270178  RH  043%=      5-min Rain = 0
KNOR 201620Z 19013KT 33/18 A2989 RMK A01 T03260178  RH  044%=      5-min Rain = 0
KNOR 201625Z 19013G18KT 33/18 A299 RMK A01 T03280179  RH  043%=      5-min Rain = 0
KNOR 201630Z 20014G19KT 33/18 A2989 RMK A01 T03330178  RH  042%=      5-min Rain = 0
KNOR 201635Z 19013KT 33/18 A2989 RMK A01 T03320177  RH  042%=      5-min Rain = 0
KNOR 201640Z 20013G20KT 33/18 A2989 RMK A01 T03340177  RH  041%=      5-min Rain = 0
KNOR 201645Z 19013KT 34/18 A2989 RMK A01 T03380178  RH  041%=      5-min Rain = 0
KNOR 201650Z 18011G16KT 34/18 A2989 RMK A01 T03360176  RH  041%=      5-min Rain = 0
KNOR 201655Z 17012G17KT 34/18 A2989 RMK A01 T03420177  RH  040%=      5-min Rain = 0
KNOR 201700Z 19013G18KT 34/18 A2989 RMK A01 T03420176  RH  039%=      5-min Rain = 0
KNOR 201705Z 20012KT 35/18 A2989 RMK A01 T03450175  RH  038%=      5-min Rain = 0
KNOR 201710Z 20012G17KT 34/17 A2989 RMK A01 T03440173  RH  038%=      5-min Rain = 0
KNOR 201715Z 18013G18KT 35/17 A2988 RMK A01 T03460173  RH  038%=      5-min Rain = 0
KNOR 201720Z 19011G17KT 35/17 A2988 RMK A01 T03480174  RH  038%=      5-min Rain = 0
KNOR 201725Z 19011G16KT 35/17 A2988 RMK A01 T03480174  RH  038%=      5-min Rain = 0
KNOR 201730Z 18013KT 35/17 A2988 RMK A01 T03490172  RH  037%=      5-min Rain = 0
KNOR 201735Z 19013KT 35/17 A2988 RMK A01 T03480170  RH  037%=      5-min Rain = 0
KNOR 201740Z 18011KT 35/17 A2988 RMK A01 T03520171  RH  036%=      5-min Rain = 0
KNOR 201745Z 19012G17KT 35/17 A2988 RMK A01 T03530168  RH  035%=      5-min Rain = 0
KNOR 201750Z 17012G18KT 36/17 A2987 RMK A01 T03550172  RH  036%=      5-min Rain = 0
KNOR 201755Z 17012G18KT 36/17 A2987 RMK A01 T03580169  RH  034%=      5-min Rain = 0
KNOR 201800Z 17012G17KT 36/17 A2987 RMK A01 T03580167  RH  034%=      5-min Rain = 0
KNOR 201805Z 19012KT 36/17 A2987 RMK A01 T03590168  RH  034%=      5-min Rain = 0
KNOR 201810Z 17013G18KT 36/17 A2987 RMK A01 T03620167  RH  033%=      5-min Rain = 0
KNOR 201815Z 17013KT 36/16 A2987 RMK A01 T03630164  RH  032%=      5-min Rain = 0
KNOR 201820Z 16013G21KT 37/16 A2987 RMK A01 T03650162  RH  031%=      5-min Rain = 0
KNOR 201825Z 19012KT 36/16 A2987 RMK A01 T03640163  RH  032%=      5-min Rain = 0
KNOR 201830Z 18013G18KT 37/16 A2987 RMK A01 T03680160  RH  031%=      5-min Rain = 0
KNOR 201835Z 18012G22KT 37/16 A2986 RMK A01 T03690160  RH  030%=      5-min Rain = 0
KNOR 201840Z 18014G19KT 37/16 A2986 RMK A01 T03690155  RH  029%=      5-min Rain = 0
KNOR 201845Z 18013G19KT 37/16 A2986 RMK A01 T03710158  RH  030%=      5-min Rain = 0
KNOR 201850Z 17013G18KT 37/15 A2986 RMK A01 T03730152  RH  028%=      5-min Rain = 0
KNOR 201855Z 17013KT 38/15 A2986 RMK A01 T03760152  RH  028%=      5-min Rain = 0
KNOR 201900Z 17014G20KT 38/15 A2986 RMK A01 T03770146  RH  027%=      5-min Rain = 0
KNOR 201905Z 18014G20KT 38/14 A2985 RMK A01 T03770144  RH  026%=      5-min Rain = 0
KNOR 201910Z 18013G18KT 38/14 A2985 RMK A01 T03820141  RH  025%=      5-min Rain = 0
KNOR 201915Z 17015G21KT 38/15 A2985 RMK A01 T03820150  RH  027%=      5-min Rain = 0
KNOR 201920Z 17015G21KT 38/14 A2985 RMK A01 T03810143  RH  026%=      5-min Rain = 0
KNOR 201925Z 17015G20KT 38/14 A2985 RMK A01 T03810141  RH  025%=      5-min Rain = 0
KNOR 201930Z 17013G20KT 38/15 A2985 RMK A01 T03810146  RH  026%=      5-min Rain = 0
KNOR 201935Z 17013G20KT 38/14 A2984 RMK A01 T03830144  RH  025%=      5-min Rain = 0
KNOR 201940Z 16017G23KT 38/15 A2984 RMK A01 T03820145  RH  026%=      5-min Rain = 0
KNOR 201945Z 16013G20KT 39/14 A2984 RMK A01 T03860141  RH  024%=      5-min Rain = 0
KNOR 201950Z 16015G22KT 39/14 A2984 RMK A01 T03870139  RH  024%=      5-min Rain = 0
KNOR 201955Z 17013G19KT 39/14 A2984 RMK A01 T03850138  RH  024%=      5-min Rain = 0
KNOR 202000Z 17015G20KT 39/14 A2984 RMK A01 T03870135  RH  023%=      5-min Rain = 0
KNOR 202005Z 18015G21KT 39/14 A2983 RMK A01 T03870137  RH  024%=      5-min Rain = 0
KNOR 202010Z 19015G20KT 39/14 A2983 RMK A01 T03890135  RH  023%=      5-min Rain = 0
KNOR 202015Z 17014G22KT 39/14 A2983 RMK A01 T03890136  RH  023%=      5-min Rain = 0
KNOR 202020Z 17014G20KT 39/14 A2983 RMK A01 T03900139  RH  024%=      5-min Rain = 0
KNOR 202025Z 18015G20KT 39/14 A2983 RMK A01 T03890140  RH  024%=      5-min Rain = 0
KNOR 202030Z 17014G21KT 39/14 A2982 RMK A01 T03890136  RH  023%=      5-min Rain = 0
KNOR 202035Z 16018G23KT 39/13 A2982 RMK A01 T03900134  RH  023%=      5-min Rain = 0
KNOR 202040Z 16016G23KT 39/14 A2982 RMK A01 T03900135  RH  023%=      5-min Rain = 0
KNOR 202045Z 17015G20KT 39/14 A2982 RMK A01 T03920136  RH  023%=      5-min Rain = 0
KNOR 202050Z 16014G23KT 39/14 A2981 RMK A01 T03920140  RH  023%=      5-min Rain = 0
KNOR 202055Z 16016G27KT 40/14 A2981 RMK A01 T03950138  RH  023%=      5-min Rain = 0
KNOR 202100Z 17016G22KT 39/13 A2981 RMK A01 T03930133  RH  022%=      5-min Rain = 0
KNOR 202105Z 17014G22KT 39/13 A2981 RMK A01 T03930131  RH  022%=      5-min Rain = 0
KNOR 202110Z 18015G20KT 39/13 A2981 RMK A01 T03940132  RH  022%=      5-min Rain = 0
KNOR 202115Z 16017G23KT 39/13 A2981 RMK A01 T03940129  RH  022%=      5-min Rain = 0
KNOR 202120Z 18015G21KT 40/13 A2981 RMK A01 T03950131  RH  022%=      5-min Rain = 0
KNOR 202125Z 17014G19KT 39/13 A2981 RMK A01 T03930131  RH  022%=      5-min Rain = 0
KNOR 202130Z 19014G20KT 39/13 A298 RMK A01 T03940134  RH  022%=      5-min Rain = 0
KNOR 202135Z 17016KT 40/13 A298 RMK A01 T03960134  RH  022%=      5-min Rain = 0
KNOR 202140Z 17015KT 40/13 A298 RMK A01 T03960127  RH  021%=      5-min Rain = 0
KNOR 202145Z 17011G25KT 40/13 A298 RMK A01 T03950129  RH  022%=      5-min Rain = 0
KNOR 202150Z 17017G23KT 40/13 A298 RMK A01 T03960131  RH  022%=      5-min Rain = 0
KNOR 202155Z 17014G19KT 39/13 A298 RMK A01 T03940129  RH  022%=      5-min Rain = 0
KNOR 202200Z 19012KT 40/13 A2979 RMK A01 T03980132  RH  022%=      5-min Rain = 0
KNOR 202205Z 17011G17KT 40/13 A2979 RMK A01 T03980128  RH  021%=      5-min Rain = 0
KNOR 202210Z 18011G19KT 40/14 A2979 RMK A01 T03990135  RH  022%=      5-min Rain = 0
KNOR 202215Z 17017G22KT 39/13 A2979 RMK A01 T03940131  RH  022%=      5-min Rain = 0
KNOR 202220Z 16015G20KT 39/13 A2979 RMK A01 T03940131  RH  022%=      5-min Rain = 0
KNOR 202225Z 18014G21KT 39/13 A2979 RMK A01 T03940131  RH  022%=      5-min Rain = 0
KNOR 202230Z 18013KT 40/13 A2979 RMK A01 T03960134  RH  022%=      5-min Rain = 0
KNOR 202235Z 15016G23KT 39/13 A2979 RMK A01 T03940133  RH  022%=      5-min Rain = 0
KNOR 202240Z 17016G23KT 39/13 A2979 RMK A01 T03930132  RH  022%=      5-min Rain = 0
KNOR 202245Z 17014G21KT 40/14 A2979 RMK A01 T03950135  RH  022%=      5-min Rain = 0
KNOR 202250Z 17017G22KT 39/13 A2979 RMK A01 T03930133  RH  022%=      5-min Rain = 0
KNOR 202255Z 16015G22KT 39/14 A2978 RMK A01 T03930136  RH  023%=      5-min Rain = 0
KNOR 202300Z 17014G21KT 39/14 A2978 RMK A01 T03940137  RH  023%=      5-min Rain = 0
KNOR 202305Z 15015G20KT 39/14 A2978 RMK A01 T03920136  RH  023%=      5-min Rain = 0
KNOR 202310Z 17015G22KT 39/14 A2978 RMK A01 T03930137  RH  023%=      5-min Rain = 0
KNOR 202315Z 17014G21KT 39/14 A2978 RMK A01 T03910137  RH  023%=      5-min Rain = 0
KNOR 202320Z 15014G21KT 39/14 A2978 RMK A01 T03910136  RH  023%=      5-min Rain = 0
KNOR 202325Z 17016G21KT 39/14 A2978 RMK A01 T03900135  RH  023%=      5-min Rain = 0
KNOR 202330Z 16012G18KT 39/14 A2978 RMK A01 T03880137  RH  024%=      5-min Rain = 0
KNOR 202335Z 16015G20KT 39/14 A2978 RMK A01 T03890137  RH  023%=      5-min Rain = 0
KNOR 202340Z 15014G19KT 39/14 A2978 RMK A01 T03850136  RH  024%=      5-min Rain = 0
KNOR 202345Z 15015G20KT 39/14 A2978 RMK A01 T03860138  RH  024%=      5-min Rain = 0
KNOR 202350Z 15015G20KT 39/14 A2978 RMK A01 T03850138  RH  024%=      5-min Rain = 0
KNOR 202355Z 15015G20KT 38/14 A2978 RMK A01 T03840139  RH  025%=      5-min Rain = 0
KNOR 210000Z 15017KT 38/14 A2978 RMK A01 T03820141  RH  025%=      5-min Rain = 0
KNOR 210005Z 15017G22KT 38/14 A2978 RMK A01 T03800139  RH  025%=      5-min Rain = 0
KNOR 210010Z 15014G19KT 38/14 A2978 RMK A01 T03790141  RH  025%=      5-min Rain = 0
KNOR 210015Z 15014G24KT 38/14 A2978 RMK A01 T03790141  RH  026%=      5-min Rain = 0
KNOR 210020Z 14015G21KT 38/14 A2978 RMK A01 T03770139  RH  025%=      5-min Rain = 0
KNOR 210025Z 15017G23KT 38/14 A2978 RMK A01 T03750139  RH  026%=      5-min Rain = 0
KNOR 210030Z 15016G21KT 37/14 A2978 RMK A01 T03740137  RH  026%=      5-min Rain = 0
KNOR 210035Z 15016G22KT 37/14 A2978 RMK A01 T03720139  RH  026%=      5-min Rain = 0
KNOR 210040Z 15016G21KT 37/14 A2978 RMK A01 T03710139  RH  026%=      5-min Rain = 0
KNOR 210045Z 15018G23KT 37/14 A2978 RMK A01 T03700137  RH  026%=      5-min Rain = 0
KNOR 210050Z 15015G21KT 37/14 A2978 RMK A01 T03680138  RH  026%=      5-min Rain = 0
KNOR 210055Z 15012G18KT 37/14 A2978 RMK A01 T03670139  RH  027%=      5-min Rain = 0
KNOR 210100Z 15015G20KT 37/14 A2978 RMK A01 T03650138  RH  027%=      5-min Rain = 0
KNOR 210105Z 15014G19KT 36/14 A2979 RMK A01 T03630138  RH  027%=      5-min Rain = 0
KNOR 210110Z 14014G19KT 36/14 A2979 RMK A01 T03620137  RH  027%=      5-min Rain = 0
KNOR 210115Z 14013G19KT 36/14 A2979 RMK A01 T03600137  RH  028%=      5-min Rain = 0
KNOR 210120Z 14013KT 36/14 A2979 RMK A01 T03580136  RH  028%=      5-min Rain = 0
KNOR 210125Z 14012G18KT 36/14 A2979 RMK A01 T03550137  RH  028%=      5-min Rain = 0
KNOR 210130Z 14013KT 35/14 A2979 RMK A01 T03530138  RH  029%=      5-min Rain = 0
KNOR 210135Z 14012KT 35/14 A2979 RMK A01 T03500138  RH  029%=      5-min Rain = 0
KNOR 210140Z 15012G17KT 35/14 A298 RMK A01 T03490138  RH  029%=      5-min Rain = 0
KNOR 210145Z 15012G19KT 35/14 A298 RMK A01 T03470138  RH  030%=      5-min Rain = 0
KNOR 210150Z 15012G17KT 35/14 A298 RMK A01 T03450137  RH  030%=      5-min Rain = 0
KNOR 210155Z 15012KT 34/14 A298 RMK A01 T03430137  RH  030%=      5-min Rain = 0
KNOR 210200Z 15011G16KT 34/14 A298 RMK A01 T03410137  RH  031%=      5-min Rain = 0
KNOR 210205Z 15011G16KT 34/14 A298 RMK A01 T03390137  RH  031%=      5-min Rain = 0
KNOR 210210Z 15012KT 34/14 A298 RMK A01 T03370137  RH  031%=      5-min Rain = 0
KNOR 210215Z 15011KT 34/14 A298 RMK A01 T03350137  RH  032%=      5-min Rain = 0
KNOR 210220Z 15010KT 33/14 A298 RMK A01 T03310137  RH  032%=      5-min Rain = 0
KNOR 210225Z 14010KT 33/14 A298 RMK A01 T03290137  RH  033%=      5-min Rain = 0
KNOR 210230Z 14009KT 33/14 A2981 RMK A01 T03260138  RH  033%=      5-min Rain = 0
KNOR 210235Z 14010KT 32/14 A2981 RMK A01 T03230139  RH  034%=      5-min Rain = 0
KNOR 210240Z 14010KT 32/14 A2981 RMK A01 T03220140  RH  035%=      5-min Rain = 0
KNOR 210245Z 14010KT 32/14 A2981 RMK A01 T03220141  RH  035%=      5-min Rain = 0
KNOR 210250Z 14012G17KT 32/14 A2981 RMK A01 T03200142  RH  035%=      5-min Rain = 0
KNOR 210255Z 14013G18KT 32/14 A2981 RMK A01 T03210142  RH  035%=      5-min Rain = 0
KNOR 210300Z 14013KT 32/14 A2982 RMK A01 T03210142  RH  035%=      5-min Rain = 0
KNOR 210305Z 14013G18KT 32/14 A2982 RMK A01 T03210141  RH  035%=      5-min Rain = 0
KNOR 210310Z 14012G17KT 32/14 A2982 RMK A01 T03210140  RH  035%=      5-min Rain = 0
KNOR 210315Z 15013G19KT 32/14 A2983 RMK A01 T03200139  RH  035%=      5-min Rain = 0
KNOR 210320Z 14013G18KT 32/14 A2983 RMK A01 T03200138  RH  034%=      5-min Rain = 0
KNOR 210325Z 14013G18KT 32/14 A2983 RMK A01 T03190137  RH  035%=      5-min Rain = 0
KNOR 210330Z 14012G17KT 32/14 A2983 RMK A01 T03180136  RH  035%=      5-min Rain = 0
KNOR 210335Z 14012G19KT 32/14 A2984 RMK A01 T03160136  RH  035%=      5-min Rain = 0
KNOR 210340Z 14012KT 31/14 A2984 RMK A01 T03130136  RH  035%=      5-min Rain = 0
KNOR 210345Z 14012G17KT 31/14 A2984 RMK A01 T03120136  RH  036%=      5-min Rain = 0
KNOR 210350Z 14013KT 31/14 A2984 RMK A01 T03110138  RH  036%=      5-min Rain = 0
KNOR 210355Z 14013KT 31/14 A2984 RMK A01 T03100139  RH  037%=      5-min Rain = 0
KNOR 210400Z 14014G20KT 31/14 A2984 RMK A01 T03090140  RH  037%=      5-min Rain = 0
KNOR 210405Z 14014G19KT 31/14 A2985 RMK A01 T03100140  RH  037%=      5-min Rain = 0
KNOR 210410Z 15013G19KT 31/14 A2985 RMK A01 T03090140  RH  037%=      5-min Rain = 0
KNOR 210415Z 15013G18KT 31/14 A2985 RMK A01 T03070141  RH  038%=      5-min Rain = 0
KNOR 210420Z 15014KT 31/14 A2985 RMK A01 T03070142  RH  038%=      5-min Rain = 0
KNOR 210425Z 15014G19KT 31/14 A2986 RMK A01 T03060143  RH  039%=      5-min Rain = 0
KNOR 210430Z 15014G19KT 31/14 A2986 RMK A01 T03050144  RH  039%=      5-min Rain = 0
KNOR 210435Z 15014G19KT 30/14 A2986 RMK A01 T03040144  RH  040%=      5-min Rain = 0
KNOR 210440Z 15013G19KT 30/15 A2986 RMK A01 T03030145  RH  040%=      5-min Rain = 0
KNOR 210445Z 15013KT 30/15 A2986 RMK A01 T03010145  RH  041%=      5-min Rain = 0
KNOR 210450Z 15012G17KT 30/15 A2986 RMK A01 T02990146  RH  041%=      5-min Rain = 0
KNOR 210455Z 15013KT 30/15 A2986 RMK A01 T02980146  RH  041%=      5-min Rain = 0

Page generated in 0.0153 seconds.